createdAt,value
2017-11-22T00:00:31.682Z,9.54
2017-11-22T00:01:31.743Z,9.53
2017-11-22T00:02:31.718Z,9.53
2017-11-22T00:03:31.723Z,9.51
2017-11-22T00:04:31.736Z,9.50
2017-11-22T00:05:31.755Z,9.50
2017-11-22T00:06:31.773Z,9.50
2017-11-22T00:07:31.728Z,9.50
2017-11-22T00:08:31.765Z,9.50
2017-11-22T00:09:31.688Z,9.51
2017-11-22T00:10:31.811Z,9.51
2017-11-22T00:11:31.810Z,9.51
2017-11-22T00:12:31.821Z,9.51
2017-11-22T00:13:31.757Z,9.54
2017-11-22T00:14:31.823Z,9.54
2017-11-22T00:15:31.762Z,9.54
2017-11-22T00:16:31.827Z,9.54
2017-11-22T00:17:31.761Z,9.55
2017-11-22T00:18:31.762Z,9.55
2017-11-22T00:19:31.829Z,9.54
2017-11-22T00:20:31.828Z,9.55
2017-11-22T00:21:31.761Z,9.53
2017-11-22T00:22:31.825Z,9.51
2017-11-22T00:23:31.763Z,9.50
2017-11-22T00:24:31.823Z,9.49
2017-11-22T00:25:31.779Z,9.49
2017-11-22T00:26:31.739Z,9.50
2017-11-22T00:27:31.733Z,9.49
2017-11-22T00:28:31.782Z,9.50
2017-11-22T00:29:31.763Z,9.49
2017-11-22T00:30:31.759Z,9.49
2017-11-22T00:31:31.720Z,9.47
2017-11-22T00:32:31.721Z,9.47
2017-11-22T00:33:31.738Z,9.49
2017-11-22T00:34:31.784Z,9.47
2017-11-22T00:35:31.765Z,9.49
2017-11-22T00:36:31.703Z,9.47
2017-11-22T00:37:31.827Z,9.47
2017-11-22T00:38:31.791Z,9.46
2017-11-22T00:39:31.810Z,9.46
2017-11-22T00:40:31.837Z,9.43
2017-11-22T00:41:31.783Z,9.43
2017-11-22T00:42:31.836Z,9.42
2017-11-22T00:43:31.750Z,9.43
2017-11-22T00:44:31.775Z,9.43
2017-11-22T00:45:31.830Z,9.42
2017-11-22T00:46:31.745Z,9.43
2017-11-22T00:47:31.798Z,9.42
2017-11-22T00:48:31.771Z,9.43
2017-11-22T00:49:31.749Z,9.43
2017-11-22T00:50:31.778Z,9.44
2017-11-22T00:51:31.734Z,9.43
2017-11-22T00:52:31.697Z,9.44
2017-11-22T00:53:31.787Z,9.44
2017-11-22T00:54:31.865Z,9.44
2017-11-22T00:55:31.756Z,9.43
2017-11-22T00:56:31.702Z,9.43
2017-11-22T00:57:31.793Z,9.43
2017-11-22T00:58:31.700Z,9.43
2017-11-22T00:59:31.799Z,9.47
2017-11-22T01:00:31.746Z,9.47
2017-11-22T01:01:31.749Z,9.46
2017-11-22T01:02:31.810Z,9.46
2017-11-22T01:03:31.785Z,9.47
2017-11-22T01:04:31.855Z,9.47
2017-11-22T01:05:31.789Z,9.46
2017-11-22T01:06:31.857Z,9.44
2017-11-22T01:07:31.792Z,9.43
2017-11-22T01:08:31.858Z,9.43
2017-11-22T01:09:31.791Z,9.43
2017-11-22T01:10:31.861Z,9.43
2017-11-22T01:11:31.857Z,9.42
2017-11-22T01:12:31.792Z,9.42
2017-11-22T01:13:31.767Z,9.42
2017-11-22T01:14:31.850Z,9.40
2017-11-22T01:15:31.763Z,9.42
2017-11-22T01:16:31.763Z,9.42
2017-11-22T01:17:31.729Z,9.42
2017-11-22T01:18:31.851Z,9.46
2017-11-22T01:19:31.829Z,9.46
2017-11-22T01:20:31.856Z,9.49
2017-11-22T01:21:32.000Z,9.44
2017-11-22T01:22:31.794Z,9.43
2017-11-22T01:23:31.866Z,9.43
2017-11-22T01:24:31.868Z,9.42
2017-11-22T01:25:31.867Z,9.40
2017-11-22T01:26:31.820Z,9.40
2017-11-22T01:27:31.867Z,9.39
2017-11-22T01:28:31.801Z,9.39
2017-11-22T01:29:31.879Z,9.38
2017-11-22T01:30:31.868Z,9.36
2017-11-22T01:31:31.807Z,9.34
2017-11-22T01:32:31.742Z,9.34
2017-11-22T01:33:31.779Z,9.34
2017-11-22T01:34:31.748Z,9.34
2017-11-22T01:35:31.801Z,9.34
2017-11-22T01:36:31.798Z,9.31
2017-11-22T01:37:31.814Z,9.30
2017-11-22T01:38:31.693Z,9.27
2017-11-22T01:39:31.743Z,9.27
2017-11-22T01:40:31.808Z,9.25
2017-11-22T01:41:31.782Z,9.25
2017-11-22T01:42:31.814Z,9.27
2017-11-22T01:43:31.880Z,9.27
2017-11-22T01:44:31.877Z,9.25
2017-11-22T01:45:31.813Z,9.23
2017-11-22T01:46:31.880Z,9.22
2017-11-22T01:47:31.825Z,9.22
2017-11-22T01:48:31.879Z,9.20
2017-11-22T01:49:31.833Z,9.19
2017-11-22T01:50:31.881Z,9.18
2017-11-22T01:51:31.882Z,9.18
2017-11-22T01:52:31.808Z,9.18
2017-11-22T01:53:31.792Z,9.18
2017-11-22T01:54:31.843Z,9.16
2017-11-22T01:55:31.771Z,9.15
2017-11-22T01:56:31.771Z,9.15
2017-11-22T01:57:31.813Z,9.11
2017-11-22T01:58:31.782Z,9.11
2017-11-22T01:59:31.779Z,9.09
2017-11-22T02:00:31.796Z,9.09
2017-11-22T02:01:31.773Z,9.08
2017-11-22T02:02:31.780Z,9.07
2017-11-22T02:03:31.804Z,9.07
2017-11-22T02:04:31.797Z,9.05
2017-11-22T02:05:31.872Z,9.04
2017-11-22T02:06:31.776Z,9.04
2017-11-22T02:07:31.760Z,9.05
2017-11-22T02:08:31.799Z,9.05
2017-11-22T02:09:31.757Z,9.07
2017-11-22T02:10:31.843Z,9.07
2017-11-22T02:11:31.799Z,9.05
2017-11-22T02:12:31.761Z,9.05
2017-11-22T02:13:31.886Z,9.05
2017-11-22T02:14:31.848Z,9.02
2017-11-22T02:15:31.866Z,9.02
2017-11-22T02:16:31.864Z,9.02
2017-11-22T02:17:31.892Z,9.02
2017-11-22T02:18:31.800Z,9.01
2017-11-22T02:19:31.885Z,9.02
2017-11-22T02:20:31.808Z,9.02
2017-11-22T02:21:31.780Z,9.02
2017-11-22T02:22:31.898Z,9.02
2017-11-22T02:23:31.856Z,9.01
2017-11-22T02:24:31.805Z,8.98
2017-11-22T02:25:31.806Z,8.96
2017-11-22T02:26:31.978Z,8.96
2017-11-22T02:27:31.769Z,8.96
2017-11-22T02:28:31.888Z,8.94
2017-11-22T02:29:31.837Z,8.96
2017-11-22T02:30:31.842Z,8.94
2017-11-22T02:31:31.775Z,8.94
2017-11-22T02:32:31.911Z,8.96
2017-11-22T02:33:31.914Z,8.93
2017-11-22T02:34:31.842Z,8.94
2017-11-22T02:35:31.909Z,8.93
2017-11-22T02:36:31.844Z,8.94
2017-11-22T02:37:31.917Z,8.93
2017-11-22T02:38:31.845Z,8.91
2017-11-22T02:39:31.912Z,8.91
2017-11-22T02:40:31.844Z,8.91
2017-11-22T02:41:31.912Z,8.91
2017-11-22T02:42:31.851Z,8.91
2017-11-22T02:43:31.916Z,8.91
2017-11-22T02:44:32.004Z,8.91
2017-11-22T02:45:31.915Z,8.93
2017-11-22T02:46:31.921Z,8.96
2017-11-22T02:47:31.852Z,8.96
2017-11-22T02:48:31.919Z,8.96
2017-11-22T02:49:31.856Z,8.94
2017-11-22T02:50:31.861Z,8.93
2017-11-22T02:51:31.926Z,8.94
2017-11-22T02:52:31.854Z,8.94
2017-11-22T02:53:31.917Z,8.93
2017-11-22T02:54:31.877Z,8.91
2017-11-22T02:55:31.904Z,8.89
2017-11-22T02:56:31.919Z,8.89
2017-11-22T02:57:31.853Z,8.89
2017-11-22T02:58:31.918Z,8.86
2017-11-22T02:59:31.918Z,8.87
2017-11-22T03:00:31.910Z,8.87
2017-11-22T03:01:31.805Z,8.89
2017-11-22T03:02:31.857Z,8.89
2017-11-22T03:03:31.865Z,8.90
2017-11-22T03:04:31.926Z,8.90
2017-11-22T03:05:31.865Z,8.90
2017-11-22T03:06:31.864Z,8.89
2017-11-22T03:07:31.927Z,8.89
2017-11-22T03:08:31.860Z,8.89
2017-11-22T03:09:31.941Z,8.89
2017-11-22T03:10:31.860Z,8.90
2017-11-22T03:11:31.931Z,8.90
2017-11-22T03:12:31.789Z,8.91
2017-11-22T03:13:31.862Z,8.90
2017-11-22T03:14:31.882Z,8.90
2017-11-22T03:15:31.795Z,8.89
2017-11-22T03:16:31.826Z,8.89
2017-11-22T03:17:31.797Z,8.89
2017-11-22T03:18:31.843Z,8.89
2017-11-22T03:19:31.818Z,8.89
2017-11-22T03:20:31.899Z,8.90
2017-11-22T03:21:31.886Z,8.91
2017-11-22T03:22:31.863Z,8.91
2017-11-22T03:23:31.800Z,8.89
2017-11-22T03:24:31.806Z,8.89
2017-11-22T03:25:31.835Z,8.90
2017-11-22T03:26:31.866Z,8.90
2017-11-22T03:27:31.926Z,8.91
2017-11-22T03:28:31.890Z,8.91
2017-11-22T03:29:31.925Z,8.91
2017-11-22T03:30:31.921Z,8.89
2017-11-22T03:31:31.868Z,8.87
2017-11-22T03:32:31.881Z,8.86
2017-11-22T03:33:31.945Z,8.87
2017-11-22T03:34:31.881Z,8.86
2017-11-22T03:35:31.971Z,8.86
2017-11-22T03:36:31.946Z,8.86
2017-11-22T03:37:31.881Z,8.87
2017-11-22T03:38:31.946Z,8.86
2017-11-22T03:39:31.882Z,8.89
2017-11-22T03:40:31.950Z,8.87
2017-11-22T03:41:31.887Z,8.86
2017-11-22T03:42:31.949Z,8.86
2017-11-22T03:43:31.816Z,8.83
2017-11-22T03:44:31.887Z,8.83
2017-11-22T03:45:31.935Z,8.83
2017-11-22T03:46:31.930Z,8.82
2017-11-22T03:47:31.888Z,8.85
2017-11-22T03:48:31.882Z,8.86
2017-11-22T03:49:31.845Z,8.83
2017-11-22T03:50:31.906Z,8.85
2017-11-22T03:51:31.906Z,8.82
2017-11-22T03:52:31.941Z,8.86
2017-11-22T03:53:31.956Z,8.90
2017-11-22T03:54:31.891Z,8.94
2017-11-22T03:55:31.957Z,8.96
2017-11-22T03:56:31.900Z,8.97
2017-11-22T03:57:31.962Z,8.97
2017-11-22T03:58:31.894Z,8.97
2017-11-22T03:59:31.961Z,8.97
2017-11-22T04:00:31.893Z,8.97
2017-11-22T04:01:31.960Z,8.98
2017-11-22T04:02:31.894Z,8.97
2017-11-22T04:03:31.966Z,8.97
2017-11-22T04:04:31.894Z,8.97
2017-11-22T04:05:31.973Z,8.96
2017-11-22T04:06:31.896Z,8.93
2017-11-22T04:07:31.966Z,8.91
2017-11-22T04:08:31.897Z,8.90
2017-11-22T04:09:31.964Z,8.91
2017-11-22T04:10:31.902Z,8.90
2017-11-22T04:11:31.968Z,8.90
2017-11-22T04:12:31.903Z,8.91
2017-11-22T04:13:31.802Z,8.91
2017-11-22T04:14:31.869Z,8.91
2017-11-22T04:15:31.910Z,8.91
2017-11-22T04:16:31.823Z,8.91
2017-11-22T04:17:31.912Z,8.91
2017-11-22T04:18:31.917Z,8.90
2017-11-22T04:19:31.865Z,8.89
2017-11-22T04:20:31.913Z,8.90
2017-11-22T04:21:31.931Z,8.90
2017-11-22T04:22:31.869Z,8.89
2017-11-22T04:23:31.829Z,8.90
2017-11-22T04:24:31.935Z,8.91
2017-11-22T04:25:31.937Z,8.90
2017-11-22T04:27:31.843Z,8.90
2017-11-22T04:28:31.841Z,8.90
2017-11-22T04:29:31.944Z,8.93
2017-11-22T04:30:31.912Z,8.93
2017-11-22T04:31:31.868Z,8.96
2017-11-22T04:32:31.905Z,8.96
2017-11-22T04:33:31.908Z,8.96
2017-11-22T04:34:31.846Z,8.94
2017-11-22T04:35:31.950Z,8.94
2017-11-22T04:36:31.887Z,8.93
2017-11-22T04:37:31.928Z,8.93
2017-11-22T04:38:31.948Z,8.91
2017-11-22T04:39:31.850Z,8.91
2017-11-22T04:40:31.969Z,8.93
2017-11-22T04:41:31.916Z,8.94
2017-11-22T04:42:31.972Z,8.97
2017-11-22T04:43:31.924Z,9.00
2017-11-22T04:44:31.990Z,9.01
2017-11-22T04:45:31.938Z,9.01
2017-11-22T04:46:32.013Z,9.00
2017-11-22T04:47:31.987Z,9.01
2017-11-22T04:48:31.925Z,9.02
2017-11-22T04:49:31.922Z,9.04
2017-11-22T04:50:31.991Z,9.02
2017-11-22T04:51:31.921Z,9.04
2017-11-22T04:52:32.006Z,9.05
2017-11-22T04:53:31.929Z,9.05
2017-11-22T04:54:31.993Z,9.05
2017-11-22T04:55:31.994Z,9.08
2017-11-22T04:56:31.953Z,9.08
2017-11-22T04:57:31.940Z,9.11
2017-11-22T04:58:31.929Z,9.11
2017-11-22T04:59:31.995Z,9.11
2017-11-22T05:00:31.928Z,9.11
2017-11-22T05:01:31.996Z,9.11
2017-11-22T05:02:31.957Z,9.12
2017-11-22T05:03:31.996Z,9.13
2017-11-22T05:04:31.926Z,9.15
2017-11-22T05:05:31.864Z,9.16
2017-11-22T05:07:31.948Z,9.16
2017-11-22T05:08:31.902Z,9.15
2017-11-22T05:09:31.907Z,9.15
2017-11-22T05:10:31.864Z,9.13
2017-11-22T05:11:31.889Z,9.15
2017-11-22T05:12:31.952Z,9.15
2017-11-22T05:13:31.935Z,9.16
2017-11-22T05:14:31.936Z,9.16
2017-11-22T05:15:31.936Z,9.16
2017-11-22T05:16:31.937Z,9.15
2017-11-22T05:17:31.900Z,9.18
2017-11-22T05:18:31.941Z,9.18
2017-11-22T05:19:32.017Z,9.18
2017-11-22T05:20:31.942Z,9.20
2017-11-22T05:21:32.009Z,9.20
2017-11-22T05:22:32.010Z,9.20
2017-11-22T05:23:31.995Z,9.18
2017-11-22T05:24:31.919Z,9.19
2017-11-22T05:25:31.941Z,9.18
2017-11-22T05:26:31.905Z,9.18
2017-11-22T05:27:31.968Z,9.18
2017-11-22T05:28:31.993Z,9.19
2017-11-22T05:29:31.874Z,9.16
2017-11-22T05:30:31.970Z,9.16
2017-11-22T05:31:31.994Z,9.15
2017-11-22T05:32:31.974Z,9.16
2017-11-22T05:33:31.952Z,9.18
2017-11-22T05:34:31.936Z,9.19
2017-11-22T05:35:31.950Z,9.18
2017-11-22T05:36:31.978Z,9.19
2017-11-22T05:37:31.909Z,9.20
2017-11-22T05:38:31.875Z,9.20
2017-11-22T05:39:31.981Z,9.23
2017-11-22T05:40:31.943Z,9.22
2017-11-22T05:41:31.978Z,9.20
2017-11-22T05:42:31.890Z,9.19
2017-11-22T05:43:31.971Z,9.22
2017-11-22T05:44:32.050Z,9.20
2017-11-22T05:45:31.973Z,9.19
2017-11-22T05:46:31.950Z,9.18
2017-11-22T05:47:31.893Z,9.19
2017-11-22T05:48:31.929Z,9.19
2017-11-22T05:49:31.929Z,9.19
2017-11-22T05:50:31.906Z,9.20
2017-11-22T05:51:31.970Z,9.19
2017-11-22T05:52:31.906Z,9.19
2017-11-22T05:53:31.982Z,9.19
2017-11-22T05:54:31.996Z,9.18
2017-11-22T05:55:31.991Z,9.16
2017-11-22T05:56:31.996Z,9.16
2017-11-22T05:57:31.913Z,9.18
2017-11-22T05:58:31.984Z,9.20
2017-11-22T05:59:32.018Z,9.20
2017-11-22T06:00:32.018Z,9.22
2017-11-22T06:01:31.986Z,9.23
2017-11-22T06:02:31.959Z,9.22
2017-11-22T06:03:32.005Z,9.22
2017-11-22T06:04:31.938Z,9.22
2017-11-22T06:05:31.898Z,9.19
2017-11-22T06:06:31.934Z,9.19
2017-11-22T06:07:31.918Z,9.19
2017-11-22T06:08:31.937Z,9.20
2017-11-22T06:09:31.982Z,9.19
2017-11-22T06:10:31.937Z,9.19
2017-11-22T06:11:31.940Z,9.19
2017-11-22T06:12:31.938Z,9.19
2017-11-22T06:13:31.976Z,9.19
2017-11-22T06:14:32.042Z,9.19
2017-11-22T06:15:31.985Z,9.19
2017-11-22T06:16:32.041Z,9.20
2017-11-22T06:17:31.919Z,9.20
2017-11-22T06:18:32.128Z,9.25
2017-11-22T06:19:32.046Z,9.27
2017-11-22T06:20:31.980Z,9.28
2017-11-22T06:21:32.046Z,9.27
2017-11-22T06:22:31.976Z,9.28
2017-11-22T06:23:32.017Z,9.27
2017-11-22T06:24:32.043Z,9.28
2017-11-22T06:25:31.994Z,9.25
2017-11-22T06:26:32.032Z,9.25
2017-11-22T06:27:31.998Z,9.27
2017-11-22T06:28:32.001Z,9.28
2017-11-22T06:29:31.954Z,9.28
2017-11-22T06:30:31.933Z,9.28
2017-11-22T06:31:31.930Z,9.28
2017-11-22T06:32:32.050Z,9.30
2017-11-22T06:33:31.981Z,9.30
2017-11-22T06:34:32.050Z,9.30
2017-11-22T06:35:31.981Z,9.30
2017-11-22T06:36:31.987Z,9.30
2017-11-22T06:37:32.058Z,9.28
2017-11-22T06:38:31.981Z,9.28
2017-11-22T06:39:32.054Z,9.28
2017-11-22T06:40:31.989Z,9.30
2017-11-22T06:41:32.060Z,9.28
2017-11-22T06:42:32.056Z,9.30
2017-11-22T06:43:31.999Z,9.32
2017-11-22T06:44:31.992Z,9.34
2017-11-22T06:45:31.994Z,9.34
2017-11-22T06:46:32.059Z,9.34
2017-11-22T06:47:31.993Z,9.34
2017-11-22T06:48:32.060Z,9.34
2017-11-22T06:49:32.069Z,9.36
2017-11-22T06:50:32.018Z,9.34
2017-11-22T06:51:31.963Z,9.36
2017-11-22T06:52:32.025Z,9.34
2017-11-22T06:53:32.025Z,9.34
2017-11-22T06:54:32.015Z,9.36
2017-11-22T06:55:34.918Z,9.39
2017-11-22T06:56:32.022Z,9.39
2017-11-22T06:57:31.933Z,9.40
2017-11-22T06:58:32.050Z,9.39
2017-11-22T06:59:32.029Z,9.39
2017-11-22T07:00:31.935Z,9.39
2017-11-22T07:01:31.996Z,9.43
2017-11-22T07:02:32.021Z,9.46
2017-11-22T07:03:32.071Z,9.46
2017-11-22T07:04:32.012Z,9.44
2017-11-22T07:05:32.073Z,9.43
2017-11-22T07:06:32.088Z,9.40
2017-11-22T07:07:32.012Z,9.40
2017-11-22T07:08:32.073Z,9.40
2017-11-22T07:09:32.007Z,9.38
2017-11-22T07:10:32.075Z,9.38
2017-11-22T07:11:32.016Z,9.34
2017-11-22T07:12:32.075Z,9.34
2017-11-22T07:13:32.015Z,9.38
2017-11-22T07:14:32.077Z,9.38
2017-11-22T07:15:32.078Z,9.38
2017-11-22T07:16:32.012Z,9.38
2017-11-22T07:17:32.085Z,9.39
2017-11-22T07:18:32.101Z,9.42
2017-11-22T07:19:32.071Z,9.42
2017-11-22T07:20:32.022Z,9.42
2017-11-22T07:21:32.089Z,9.42
2017-11-22T07:22:32.010Z,9.40
2017-11-22T07:23:32.032Z,9.40
2017-11-22T07:24:31.988Z,9.38
2017-11-22T07:25:31.974Z,9.39
2017-11-22T07:26:31.975Z,9.39
2017-11-22T07:27:31.952Z,9.38
2017-11-22T07:28:31.956Z,9.40
2017-11-22T07:29:31.941Z,9.42
2017-11-22T07:30:32.065Z,9.42
2017-11-22T07:31:32.034Z,9.43
2017-11-22T07:32:32.074Z,9.42
2017-11-22T07:33:31.943Z,9.43
2017-11-22T07:34:31.965Z,9.43
2017-11-22T07:35:31.982Z,9.44
2017-11-22T07:36:31.981Z,9.43
2017-11-22T07:37:32.038Z,9.43
2017-11-22T07:38:31.936Z,9.43
2017-11-22T07:39:32.035Z,9.44
2017-11-22T07:40:31.986Z,9.46
2017-11-22T07:41:32.046Z,9.47
2017-11-22T07:42:31.984Z,9.47
2017-11-22T07:43:32.080Z,9.47
2017-11-22T07:44:32.078Z,9.47
2017-11-22T07:45:32.107Z,9.47
2017-11-22T07:46:32.064Z,9.47
2017-11-22T07:47:31.978Z,9.46
2017-11-22T07:48:32.096Z,9.43
2017-11-22T07:49:32.047Z,9.44
2017-11-22T07:50:32.005Z,9.43
2017-11-22T07:51:31.978Z,9.42
2017-11-22T07:52:32.004Z,9.43
2017-11-22T07:53:31.954Z,9.43
2017-11-22T07:54:32.078Z,9.43
2017-11-22T07:55:31.967Z,9.44
2017-11-22T07:56:31.974Z,9.44
2017-11-22T07:57:31.962Z,9.46
2017-11-22T07:58:32.056Z,9.47
2017-11-22T07:59:32.053Z,9.49
2017-11-22T08:00:31.959Z,9.50
2017-11-22T08:01:32.051Z,9.54
2017-11-22T08:02:32.082Z,9.54
2017-11-22T08:03:32.038Z,9.55
2017-11-22T08:04:32.106Z,9.54
2017-11-22T08:05:32.042Z,9.54
2017-11-22T08:06:32.104Z,9.57
2017-11-22T08:07:32.115Z,9.61
2017-11-22T08:08:32.039Z,9.62
2017-11-22T08:09:32.109Z,9.62
2017-11-22T08:10:32.042Z,9.62
2017-11-22T08:11:32.110Z,9.64
2017-11-22T08:12:32.042Z,9.64
2017-11-22T08:13:32.003Z,9.65
2017-11-22T08:14:32.064Z,9.68
2017-11-22T08:15:32.111Z,9.69
2017-11-22T08:16:32.038Z,9.72
2017-11-22T08:17:32.113Z,9.73
2017-11-22T08:18:32.045Z,9.75
2017-11-22T08:19:32.116Z,9.75
2017-11-22T08:20:32.039Z,9.75
2017-11-22T08:21:32.116Z,9.76
2017-11-22T08:22:32.048Z,9.78
2017-11-22T08:23:32.047Z,9.79
2017-11-22T08:24:32.121Z,9.80
2017-11-22T08:25:32.050Z,9.83
2017-11-22T08:26:32.118Z,9.86
2017-11-22T08:27:32.057Z,9.91
2017-11-22T08:28:32.118Z,9.94
2017-11-22T08:29:32.053Z,9.94
2017-11-22T08:30:32.124Z,9.95
2017-11-22T08:31:32.052Z,9.98
2017-11-22T08:32:32.122Z,9.98
2017-11-22T08:33:32.055Z,10.01
2017-11-22T08:34:32.125Z,10.02
2017-11-22T08:35:32.051Z,10.05
2017-11-22T08:36:32.142Z,10.08
2017-11-22T08:37:32.073Z,10.13
2017-11-22T08:38:32.125Z,10.14
2017-11-22T08:39:32.061Z,10.18
2017-11-22T08:40:32.131Z,10.21
2017-11-22T08:41:32.059Z,10.21
2017-11-22T08:42:32.130Z,10.24
2017-11-22T08:43:32.002Z,10.24
2017-11-22T08:44:32.110Z,10.24
2017-11-22T08:45:32.016Z,10.25
2017-11-22T08:46:31.999Z,10.25
2017-11-22T08:47:32.080Z,10.24
2017-11-22T08:48:31.997Z,10.24
2017-11-22T08:49:32.065Z,10.25
2017-11-22T08:50:32.122Z,10.28
2017-11-22T08:51:32.084Z,10.28
2017-11-22T08:52:32.064Z,10.28
2017-11-22T08:53:32.064Z,10.28
2017-11-22T08:54:32.137Z,10.30
2017-11-22T08:55:32.066Z,10.30
2017-11-22T08:56:32.137Z,10.31
2017-11-22T08:57:32.071Z,10.31
2017-11-22T08:58:32.136Z,10.31
2017-11-22T08:59:32.110Z,10.34
2017-11-22T09:00:32.074Z,10.32
2017-11-22T09:01:32.139Z,10.32
2017-11-22T09:02:32.075Z,10.32
2017-11-22T09:03:32.141Z,10.31
2017-11-22T09:04:32.072Z,10.31
2017-11-22T09:05:32.138Z,10.34
2017-11-22T09:06:32.143Z,10.32
2017-11-22T09:07:32.071Z,10.32
2017-11-22T09:08:32.144Z,10.31
2017-11-22T09:09:32.077Z,10.30
2017-11-22T09:10:32.144Z,10.30
2017-11-22T09:11:32.081Z,10.28
2017-11-22T09:12:32.151Z,10.28
2017-11-22T09:13:32.094Z,10.27
2017-11-22T09:14:32.005Z,10.28
2017-11-22T09:15:32.131Z,10.30
2017-11-22T09:16:32.044Z,10.31
2017-11-22T09:17:32.144Z,10.28
2017-11-22T09:18:32.113Z,10.25
2017-11-22T09:19:32.139Z,10.28
2017-11-22T09:20:32.139Z,10.25
2017-11-22T09:21:32.135Z,10.27
2017-11-22T09:22:32.116Z,10.28
2017-11-22T09:23:32.107Z,10.31
2017-11-22T09:24:32.176Z,10.32
2017-11-22T09:25:32.084Z,10.31
2017-11-22T09:26:32.156Z,10.32
2017-11-22T09:27:32.089Z,10.32
2017-11-22T09:28:32.085Z,10.34
2017-11-22T09:29:32.100Z,10.35
2017-11-22T09:30:32.158Z,10.35
2017-11-22T09:31:32.090Z,10.38
2017-11-22T09:32:32.215Z,10.38
2017-11-22T09:33:32.056Z,10.38
2017-11-22T09:34:32.081Z,10.38
2017-11-22T09:35:32.085Z,10.39
2017-11-22T09:36:32.102Z,10.39
2017-11-22T09:37:32.156Z,10.41
2017-11-22T09:38:32.061Z,10.39
2017-11-22T09:39:32.068Z,10.41
2017-11-22T09:40:32.040Z,10.41
2017-11-22T09:41:32.044Z,10.43
2017-11-22T09:42:32.024Z,10.45
2017-11-22T09:43:32.204Z,10.45
2017-11-22T09:44:32.094Z,10.46
2017-11-22T09:45:32.168Z,10.45
2017-11-22T09:46:32.096Z,10.46
2017-11-22T09:47:32.169Z,10.46
2017-11-22T09:48:32.142Z,10.46
2017-11-22T09:49:32.169Z,10.46
2017-11-22T09:50:32.108Z,10.49
2017-11-22T09:51:32.172Z,10.49
2017-11-22T09:52:32.105Z,10.49
2017-11-22T09:53:32.150Z,10.47
2017-11-22T09:54:32.136Z,10.49
2017-11-22T09:55:32.101Z,10.49
2017-11-22T09:56:32.062Z,10.50
2017-11-22T09:57:32.031Z,10.49
2017-11-22T09:58:32.071Z,10.49
2017-11-22T09:59:32.152Z,10.52
2017-11-22T10:00:32.105Z,10.53
2017-11-22T10:01:32.137Z,10.52
2017-11-22T10:02:32.201Z,10.53
2017-11-22T10:03:32.061Z,10.52
2017-11-22T10:04:32.188Z,10.53
2017-11-22T10:05:32.108Z,10.53
2017-11-22T10:06:32.179Z,10.53
2017-11-22T10:07:32.107Z,10.54
2017-11-22T10:08:32.180Z,10.54
2017-11-22T10:09:32.113Z,10.54
2017-11-22T10:10:32.183Z,10.56
2017-11-22T10:11:32.105Z,10.57
2017-11-22T10:12:32.183Z,10.58
2017-11-22T10:13:32.119Z,10.60
2017-11-22T10:14:32.188Z,10.63
2017-11-22T10:15:32.185Z,10.64
2017-11-22T10:16:32.114Z,10.65
2017-11-22T10:17:32.118Z,10.65
2017-11-22T10:18:32.217Z,10.67
2017-11-22T10:19:32.121Z,10.68
2017-11-22T10:20:32.188Z,10.71
2017-11-22T10:21:32.120Z,10.71
2017-11-22T10:22:32.188Z,10.72
2017-11-22T10:23:32.120Z,10.74
2017-11-22T10:24:32.200Z,10.74
2017-11-22T10:25:32.190Z,10.77
2017-11-22T10:26:32.195Z,10.79
2017-11-22T10:27:32.126Z,10.81
2017-11-22T10:28:32.195Z,10.84
2017-11-22T10:29:32.125Z,10.88
2017-11-22T10:30:32.192Z,10.91
2017-11-22T10:31:32.130Z,10.94
2017-11-22T10:32:32.214Z,10.97
2017-11-22T10:33:32.128Z,10.98
2017-11-22T10:34:32.197Z,11.06
2017-11-22T10:35:32.198Z,11.07
2017-11-22T10:36:32.128Z,11.09
2017-11-22T10:37:32.199Z,11.07
2017-11-22T10:38:32.131Z,11.11
2017-11-22T10:39:32.220Z,11.17
2017-11-22T10:40:32.200Z,11.18
2017-11-22T10:41:32.201Z,11.20
2017-11-22T10:42:32.126Z,11.21
2017-11-22T10:43:32.132Z,11.22
2017-11-22T10:44:32.129Z,11.16
2017-11-22T10:45:32.204Z,11.13
2017-11-22T10:46:32.201Z,11.17
2017-11-22T10:47:32.134Z,11.21
2017-11-22T10:48:32.206Z,11.27
2017-11-22T10:49:32.134Z,11.31
2017-11-22T10:50:32.206Z,11.33
2017-11-22T10:51:32.138Z,11.35
2017-11-22T10:52:32.209Z,11.32
2017-11-22T10:53:32.206Z,11.31
2017-11-22T10:54:32.172Z,11.31
2017-11-22T10:55:32.187Z,11.28
2017-11-22T10:56:32.102Z,11.28
2017-11-22T10:57:32.165Z,11.25
2017-11-22T10:58:32.119Z,11.24
2017-11-22T10:59:32.174Z,11.25
2017-11-22T11:00:32.142Z,11.27
2017-11-22T11:01:32.171Z,11.31
2017-11-22T11:02:32.073Z,11.36
2017-11-22T11:03:32.159Z,11.40
2017-11-22T11:04:32.160Z,11.43
2017-11-22T11:05:32.103Z,11.42
2017-11-22T11:06:32.069Z,11.43
2017-11-22T11:07:32.104Z,11.50
2017-11-22T11:08:32.192Z,11.50
2017-11-22T11:09:32.159Z,11.45
2017-11-22T11:10:32.085Z,11.42
2017-11-22T11:11:32.103Z,11.45
2017-11-22T11:12:32.122Z,11.45
2017-11-22T11:13:32.149Z,11.50
2017-11-22T11:14:32.186Z,11.53
2017-11-22T11:15:32.095Z,11.50
2017-11-22T11:16:32.205Z,11.49
2017-11-22T11:17:32.224Z,11.47
2017-11-22T11:18:32.219Z,11.49
2017-11-22T11:19:32.209Z,11.50
2017-11-22T11:20:32.148Z,11.50
2017-11-22T11:21:32.153Z,11.53
2017-11-22T11:22:32.127Z,11.54
2017-11-22T11:23:32.130Z,11.60
2017-11-22T11:24:32.172Z,11.65
2017-11-22T11:25:32.229Z,11.71
2017-11-22T11:26:32.164Z,11.69
2017-11-22T11:27:32.227Z,11.68
2017-11-22T11:28:32.159Z,11.67
2017-11-22T11:29:32.228Z,11.68
2017-11-22T11:30:32.162Z,11.75
2017-11-22T11:31:32.229Z,11.75
2017-11-22T11:32:32.162Z,11.83
2017-11-22T11:33:32.162Z,11.89
2017-11-22T11:34:32.256Z,11.82
2017-11-22T11:35:32.169Z,11.87
2017-11-22T11:36:32.241Z,11.82
2017-11-22T11:37:32.162Z,11.75
2017-11-22T11:38:32.165Z,11.67
2017-11-22T11:39:32.165Z,11.64
2017-11-22T11:40:32.238Z,11.67
2017-11-22T11:41:32.174Z,11.75
2017-11-22T11:42:32.169Z,11.73
2017-11-22T11:43:32.177Z,11.75
2017-11-22T11:44:32.237Z,11.78
2017-11-22T11:45:32.174Z,11.71
2017-11-22T11:46:32.239Z,11.72
2017-11-22T11:47:32.172Z,11.73
2017-11-22T11:48:32.246Z,11.78
2017-11-22T11:49:32.173Z,11.79
2017-11-22T11:50:32.241Z,11.82
2017-11-22T11:51:32.174Z,11.82
2017-11-22T11:52:32.176Z,11.83
2017-11-22T11:53:32.243Z,11.82
2017-11-22T11:54:32.170Z,11.83
2017-11-22T11:55:32.246Z,11.84
2017-11-22T11:56:32.171Z,11.84
2017-11-22T11:57:32.250Z,11.83
2017-11-22T11:58:32.175Z,11.83
2017-11-22T11:59:32.246Z,11.83
2017-11-22T12:00:32.247Z,11.92
2017-11-22T12:01:32.174Z,11.95
2017-11-22T12:02:32.251Z,11.98
2017-11-22T12:03:32.231Z,12.01
2017-11-22T12:04:32.251Z,12.03
2017-11-22T12:05:32.234Z,11.99
2017-11-22T12:06:32.249Z,12.05
2017-11-22T12:07:32.193Z,12.08
2017-11-22T12:08:32.133Z,12.05
2017-11-22T12:09:32.234Z,12.06
2017-11-22T12:10:32.223Z,12.05
2017-11-22T12:11:32.200Z,11.91
2017-11-22T12:12:32.243Z,11.83
2017-11-22T12:13:32.164Z,11.89
2017-11-22T12:14:32.185Z,11.91
2017-11-22T12:15:32.187Z,11.92
2017-11-22T12:16:32.280Z,11.97
2017-11-22T12:17:32.258Z,12.09
2017-11-22T12:18:32.185Z,12.24
2017-11-22T12:19:32.259Z,12.32
2017-11-22T12:20:32.187Z,12.42
2017-11-22T12:21:32.260Z,12.46
2017-11-22T12:22:32.261Z,12.55
2017-11-22T12:23:32.197Z,12.66
2017-11-22T12:24:32.192Z,12.62
2017-11-22T12:25:32.262Z,12.60
2017-11-22T12:26:32.193Z,12.54
2017-11-22T12:27:32.264Z,12.51
2017-11-22T12:28:32.194Z,12.44
2017-11-22T12:29:32.272Z,12.36
2017-11-22T12:30:32.233Z,12.36
2017-11-22T12:31:32.268Z,12.33
2017-11-22T12:32:32.194Z,12.39
2017-11-22T12:33:32.279Z,12.44
2017-11-22T12:34:32.139Z,12.37
2017-11-22T12:35:32.130Z,12.28
2017-11-22T12:36:32.161Z,12.26
2017-11-22T12:37:32.200Z,12.26
2017-11-22T12:38:32.185Z,12.25
2017-11-22T12:39:32.226Z,12.18
2017-11-22T12:40:32.236Z,12.10
2017-11-22T12:41:32.235Z,12.16
2017-11-22T12:42:32.185Z,12.21
2017-11-22T12:43:32.259Z,12.16
2017-11-22T12:44:32.273Z,12.14
2017-11-22T12:45:32.199Z,12.13
2017-11-22T12:46:32.275Z,12.14
2017-11-22T12:47:32.207Z,12.16
2017-11-22T12:48:32.206Z,12.08
2017-11-22T12:49:32.279Z,12.08
2017-11-22T12:50:32.210Z,12.09
2017-11-22T12:51:32.304Z,12.09
2017-11-22T12:52:32.203Z,12.05
2017-11-22T12:53:32.158Z,12.06
2017-11-22T12:54:32.233Z,12.02
2017-11-22T12:55:32.281Z,12.02
2017-11-22T12:56:32.281Z,12.02
2017-11-22T12:57:32.215Z,12.02
2017-11-22T12:58:32.246Z,12.01
2017-11-22T12:59:32.321Z,12.01
2017-11-22T13:00:32.216Z,12.01
2017-11-22T13:01:32.216Z,12.03
2017-11-22T13:02:32.284Z,12.02
2017-11-22T13:03:32.286Z,11.98
2017-11-22T13:04:32.246Z,11.97
2017-11-22T13:05:32.220Z,11.92
2017-11-22T13:06:32.287Z,11.94
2017-11-22T13:07:32.217Z,11.94
2017-11-22T13:08:32.221Z,11.97
2017-11-22T13:09:32.289Z,11.94
2017-11-22T13:10:32.222Z,11.92
2017-11-22T13:11:32.223Z,11.95